NCAR-RAP Real-Time Weather Data

Output produced by METARs form (24 July 2014  04:10 UTC)
found at http://weather.rap.ucar.edu/surface/
 
Conditions at: KSDF observed 24 July 2014  03:56 UTC
Temperature: 23.9°C (75°F)
Dewpoint: 20.0°C (68°F) [RH = 79%]
Pressure (altimeter): 30.00 inches Hg (1016.0 mb)
[Sea-level pressure: 1015.4 mb]
Winds: from the N (10 degrees) at 14 MPH (12 knots; 6.2 m/s)
Visibility: 10 or more miles (16+ km)
Ceiling: 1200 feet AGL
Clouds: overcast cloud deck at 1200 feet AGL
Present Weather: no significant weather observed at this time
KSDF 240356Z 01012KT 10SM OVC012 24/20 A3000 RMK AO2 SLP154 T02390200